Time;durP1;ratioP1;P1;durP2;ratioP2;P2;SDS_P1;SDS_P2;PMS_P1;PMS_P2;Temp;Humidity;BMP_temperature;BMP_pressure;BME280_temperature;BME280_humidity;BME280_pressure;Samples;Min_cycle;Max_cycle;Signal;HPM_P1;HPM_P2
2023/05/15 00:00:13;;;;;;;9.63;5.53;;;;;;;8.85;100.00;98347.88;5007930;28;20022;-76
2023/05/15 00:02:38;;;;;;;9.93;5.10;;;;;;;8.95;100.00;98361.81;5006469;28;20037;-76
2023/05/15 00:05:05;;;;;;;8.07;4.95;;;;;;;9.11;100.00;98379.50;5009151;28;20488;-77
2023/05/15 00:07:31;;;;;;;12.80;4.38;;;;;;;9.23;100.00;98391.34;5025250;28;20483;-75
2023/05/15 00:09:56;;;;;;;10.50;4.35;;;;;;;9.18;100.00;98383.03;5011716;28;20034;-75
2023/05/15 00:12:21;;;;;;;7.78;4.50;;;;;;;8.81;100.00;98336.69;5009827;28;20028;-76
2023/05/15 00:14:46;;;;;;;13.88;5.55;;;;;;;8.91;100.00;98365.97;5006237;28;20023;-76
2023/05/15 00:17:12;;;;;;;7.72;4.63;;;;;;;8.68;100.00;98352.81;5011425;28;20122;-75
2023/05/15 00:19:37;;;;;;;8.10;4.72;;;;;;;8.68;100.00;98363.59;5010336;28;20060;-76
2023/05/15 00:22:03;;;;;;;7.93;4.85;;;;;;;8.73;100.00;98380.84;5011936;28;20018;-74
2023/05/15 00:24:28;;;;;;;10.23;5.47;;;;;;;8.86;100.00;98377.38;5006962;28;20117;-74
2023/05/15 00:26:53;;;;;;;8.48;4.63;;;;;;;8.93;100.00;98383.63;5013334;28;20041;-76
2023/05/15 00:29:19;;;;;;;9.63;5.32;;;;;;;8.94;100.00;98381.75;5012970;28;20025;-77
2023/05/15 00:31:44;;;;;;;7.88;4.40;;;;;;;8.89;100.00;98371.56;5009797;28;20042;-75
2023/05/15 00:34:09;;;;;;;8.55;4.60;;;;;;;8.85;100.00;98362.19;5007070;28;20065;-77
2023/05/15 00:36:35;;;;;;;12.75;4.78;;;;;;;8.80;100.00;98351.19;5009962;28;20010;-76
2023/05/15 00:39:00;;;;;;;10.27;5.00;;;;;;;8.89;100.00;98386.91;5010493;28;20030;-77
2023/05/15 00:41:27;;;;;;;10.23;5.68;;;;;;;9.00;100.00;98400.63;5011739;28;20044;-76
2023/05/15 00:43:54;;;;;;;10.48;5.53;;;;;;;8.89;100.00;98376.94;5006147;28;20060;-75
2023/05/15 00:46:21;;;;;;;7.85;4.78;;;;;;;8.99;100.00;98390.88;5011233;28;20018;-76
2023/05/15 00:48:49;;;;;;;8.25;5.25;;;;;;;9.10;100.00;98404.81;5012468;28;20548;-76
2023/05/15 00:51:15;;;;;;;9.65;5.78;;;;;;;8.83;100.00;98366.13;5011924;28;20084;-77
2023/05/15 00:53:42;;;;;;;9.45;4.78;;;;;;;8.92;100.00;98394.59;5008007;28;20037;-76
2023/05/15 00:56:08;;;;;;;8.70;5.35;;;;;;;8.89;100.00;98390.44;5012320;28;20064;-77
2023/05/15 00:58:35;;;;;;;9.05;4.75;;;;;;;8.94;100.00;98406.84;5012414;28;20427;-76
2023/05/15 01:01:01;;;;;;;8.32;5.50;;;;;;;8.84;100.00;98384.81;5008436;28;20037;-76
2023/05/15 01:03:27;;;;;;;9.18;5.22;;;;;;;8.66;100.00;98362.97;5008309;28;20030;-76
2023/05/15 01:05:53;;;;;;;13.45;5.30;;;;;;;8.76;100.00;98371.50;5014250;28;20017;-77
2023/05/15 01:08:25;;;;;;;10.35;5.32;;;;;;;8.95;100.00;98396.88;5010299;28;20168;-76
2023/05/15 01:10:51;;;;;;;8.85;5.32;;;;;;;8.94;100.00;98387.97;5014300;28;20111;-76
2023/05/15 01:13:19;;;;;;;8.85;5.40;;;;;;;8.88;100.00;98369.03;5008561;28;20064;-75
2023/05/15 01:15:45;;;;;;;11.43;5.53;;;;;;;8.99;100.00;98380.09;5005982;28;20060;-76
2023/05/15 01:18:10;;;;;;;8.98;5.28;;;;;;;9.09;100.00;98382.41;5010572;28;20054;-76
2023/05/15 01:20:57;;;;;;;9.90;5.47;;;;;;;9.12;100.00;98395.50;5013018;28;20495;-76
2023/05/15 01:23:34;;;;;;;9.00;5.28;;;;;;;9.11;100.00;98401.06;4998754;28;20072;-76
2023/05/15 01:26:23;;;;;;;10.45;4.90;;;;;;;8.96;100.00;98375.13;5012580;28;20030;-75
2023/05/15 01:28:56;;;;;;;;;;;;;;;9.18;100.00;98401.94;5006058;28;20459;-76
2023/05/15 01:31:25;;;;;;;8.18;5.07;;;;;;;9.17;100.00;98390.31;5007859;28;19921;-76
2023/05/15 01:33:54;;;;;;;;;;;;;;;9.21;100.00;98402.34;5005971;28;20120;-77
2023/05/15 01:36:25;;;;;;;;;;;;;;;9.32;100.00;98405.47;5005035;28;19917;-76
2023/05/15 01:38:58;;;;;;;11.13;4.65;;;;;;;9.20;100.00;98386.38;5010384;28;20000;-76
2023/05/15 01:41:29;;;;;;;14.90;4.75;;;;;;;9.35;100.00;98391.56;5011420;28;20458;-77
2023/05/15 01:44:21;;;;;;;10.30;5.00;;;;;;;9.23;100.00;98406.72;5007387;28;20025;-78
2023/05/15 01:46:50;;;;;;;7.38;4.70;;;;;;;9.10;100.00;98388.63;4991276;28;20112;-75
2023/05/15 01:49:18;;;;;;;10.65;5.43;;;;;;;9.08;100.00;98388.00;5016777;28;20022;-77
2023/05/15 01:51:46;;;;;;;11.52;5.53;;;;;;;8.81;100.00;98368.22;5011834;28;20022;-77
2023/05/15 01:54:14;;;;;;;13.38;6.03;;;;;;;8.83;100.00;98371.53;5005043;28;20476;-76
2023/05/15 01:56:40;;;;;;;10.35;5.55;;;;;;;8.86;100.00;98371.13;5003045;28;20065;-77
2023/05/15 01:59:07;;;;;;;11.20;5.90;;;;;;;8.84;100.00;98378.59;5008526;28;20032;-77
2023/05/15 02:01:35;;;;;;;9.95;5.45;;;;;;;8.74;100.00;98374.41;5003508;28;20137;-78
2023/05/15 02:04:02;;;;;;;13.50;6.10;;;;;;;8.62;100.00;98361.69;5005599;28;20436;-76
2023/05/15 02:06:28;;;;;;;10.38;6.00;;;;;;;8.69;100.00;98386.84;5006888;28;20038;-77
2023/05/15 02:08:56;;;;;;;13.55;6.20;;;;;;;8.75;100.00;98396.81;5011908;28;20502;-76
2023/05/15 02:11:21;;;;;;;10.85;5.95;;;;;;;8.58;100.00;98379.31;5010138;28;20057;-77
2023/05/15 02:13:48;;;;;;;10.10;5.75;;;;;;;8.61;100.00;98397.78;5005433;28;20061;-76
2023/05/15 02:16:13;;;;;;;9.85;5.75;;;;;;;8.51;100.00;98377.44;5010692;28;20076;-75
2023/05/15 02:18:38;;;;;;;10.95;5.53;;;;;;;8.50;100.00;98375.75;5001297;28;20049;-76
2023/05/15 02:21:04;;;;;;;10.52;6.10;;;;;;;8.52;100.00;98372.88;5011698;28;20014;-76
2023/05/15 02:23:29;;;;;;;10.35;5.43;;;;;;;8.58;100.00;98384.72;5009976;28;20022;-74
2023/05/15 02:26:09;;;;;;;13.55;6.18;;;;;;;8.59;100.00;98406.06;5010839;28;20448;-77
2023/05/15 02:29:12;;;;;;;9.32;5.40;;;;;;;8.62;100.00;98421.03;5010120;28;20113;-77
2023/05/15 02:31:58;;;;;;;9.93;5.43;;;;;;;8.67;100.00;98405.06;5008002;28;20026;-75
2023/05/15 02:34:33;;;;;;;10.07;5.25;;;;;;;8.69;100.00;98409.22;5004860;28;20029;-75
2023/05/15 02:37:02;;;;;;;7.38;4.72;;;;;;;8.64;100.00;98394.69;5001305;28;20492;-75
2023/05/15 02:39:28;;;;;;;8.85;5.25;;;;;;;8.69;100.00;98389.53;5008342;28;20117;-75
2023/05/15 02:41:54;;;;;;;9.75;5.40;;;;;;;8.77;100.00;98400.13;5004054;28;20026;-77
2023/05/15 02:44:21;;;;;;;8.30;5.13;;;;;;;8.77;100.00;98382.09;5007119;28;20026;-76
2023/05/15 02:46:47;;;;;;;9.45;5.50;;;;;;;8.76;100.00;98382.31;5007920;28;20026;-75
2023/05/15 02:49:14;;;;;;;8.80;5.50;;;;;;;8.83;100.00;98383.16;5012285;28;20032;-76
2023/05/15 02:51:39;;;;;;;11.95;6.22;;;;;;;8.86;100.00;98382.75;5008398;28;20026;-74
2023/05/15 02:54:05;;;;;;;8.38;5.55;;;;;;;8.91;100.00;98376.75;5009896;28;20026;-75
2023/05/15 02:56:30;;;;;;;9.00;5.40;;;;;;;8.85;100.00;98366.75;5008639;28;20530;-76
2023/05/15 02:58:56;;;;;;;13.43;6.53;;;;;;;8.86;100.00;98365.75;5012575;28;20033;-76
2023/05/15 03:01:21;;;;;;;11.25;6.22;;;;;;;9.06;100.00;98390.06;5009420;28;20453;-76
2023/05/15 03:03:46;;;;;;;8.32;5.43;;;;;;;9.17;100.00;98384.09;5007865;28;20635;-76
2023/05/15 03:06:12;;;;;;;7.78;4.90;;;;;;;9.07;100.00;98362.88;5005133;28;20488;-76
2023/05/15 03:08:37;;;;;;;8.77;5.63;;;;;;;9.23;100.00;98385.97;5009521;28;20104;-77
2023/05/15 03:11:02;;;;;;;11.68;5.38;;;;;;;9.26;100.00;98390.94;5000516;28;20129;-77
2023/05/15 03:13:28;;;;;;;9.77;5.80;;;;;;;9.20;100.00;98379.09;4998157;28;20022;-74
2023/05/15 03:15:53;;;;;;;33.28;6.38;;;;;;;9.26;100.00;98390.13;5010227;28;20426;-75
2023/05/15 03:18:18;;;;;;;11.25;6.45;;;;;;;9.17;100.00;98376.81;5013565;28;20024;-76
2023/05/15 03:20:44;;;;;;;13.65;7.20;;;;;;;9.15;100.00;98383.47;5004022;28;20030;-74
2023/05/15 03:23:09;;;;;;;9.60;5.95;;;;;;;9.20;100.00;98389.06;5005680;28;20037;-78
2023/05/15 03:25:35;;;;;;;12.27;6.97;;;;;;;9.20;100.00;98387.19;5004753;28;20030;-76
2023/05/15 03:28:00;;;;;;;12.85;7.43;;;;;;;9.15;100.00;98391.56;5005604;28;20033;-80
2023/05/15 03:30:25;;;;;;;9.30;5.95;;;;;;;9.04;100.00;98367.84;5010283;28;20495;-81
2023/05/15 03:32:50;;;;;;;14.90;5.13;;;;;;;9.09;100.00;98378.84;5004317;28;20111;-78
2023/05/15 03:35:16;;;;;;;10.35;5.75;;;;;;;9.22;100.00;98362.69;5012117;28;20032;-79
2023/05/15 03:37:42;;;;;;;8.68;5.20;;;;;;;9.30;100.00;98373.31;5010690;28;20077;-79
2023/05/15 03:40:07;;;;;;;8.48;5.15;;;;;;;9.36;100.00;98388.69;5001541;28;20029;-77
2023/05/15 03:42:33;;;;;;;8.57;5.03;;;;;;;9.32;100.00;98376.63;5009168;28;20018;-76
2023/05/15 03:44:58;;;;;;;11.18;5.28;;;;;;;8.81;100.00;98350.16;5019102;28;20053;-76
2023/05/15 03:47:23;;;;;;;7.63;4.20;;;;;;;8.76;100.00;98350.75;5027776;28;20049;-76
2023/05/15 03:49:49;;;;;;;11.73;6.22;;;;;;;8.91;100.00;98380.28;5020893;28;20026;-78
2023/05/15 03:52:14;;;;;;;10.63;5.68;;;;;;;8.74;100.00;98368.19;5015944;28;20076;-76
2023/05/15 03:54:41;;;;;;;9.15;5.63;;;;;;;8.73;100.00;98382.72;5008353;28;20026;-75
2023/05/15 03:57:06;;;;;;;9.20;5.82;;;;;;;8.65;100.00;98386.41;5015065;28;20029;-77
2023/05/15 03:59:32;;;;;;;9.38;5.10;;;;;;;8.75;100.00;98397.66;5010123;28;20075;-73
2023/05/15 04:01:57;;;;;;;9.63;6.18;;;;;;;8.64;100.00;98371.25;5015230;28;20030;-77
2023/05/15 04:04:22;;;;;;;12.27;5.50;;;;;;;8.72;100.00;98383.72;5016943;28;20032;-73
2023/05/15 04:06:49;;;;;;;13.20;6.15;;;;;;;8.79;100.00;98381.91;5014776;28;20040;-73
2023/05/15 04:09:14;;;;;;;14.30;6.90;;;;;;;8.88;100.00;98391.50;5010792;28;20030;-76
2023/05/15 04:11:39;;;;;;;11.57;6.68;;;;;;;8.91;100.00;98385.69;5014394;28;20034;-73
2023/05/15 04:14:05;;;;;;;10.32;6.03;;;;;;;8.93;100.00;98378.22;5011635;28;20621;-79
2023/05/15 04:16:30;;;;;;;10.18;5.28;;;;;;;9.02;100.00;98383.44;5012880;28;20037;-81
2023/05/15 04:18:56;;;;;;;9.48;5.82;;;;;;;9.14;100.00;98392.56;5016971;28;20029;-75
2023/05/15 04:21:21;;;;;;;9.52;5.93;;;;;;;9.23;100.00;98396.75;5014986;28;20392;-76
2023/05/15 04:23:46;;;;;;;9.23;5.75;;;;;;;9.12;100.00;98386.56;5014737;28;20032;-76
2023/05/15 04:26:11;;;;;;;13.25;5.90;;;;;;;9.20;100.00;98394.47;5008842;28;20018;-81
2023/05/15 04:28:37;;;;;;;12.27;6.25;;;;;;;9.21;100.00;98374.53;5019283;28;20028;-77
2023/05/15 04:31:02;;;;;;;11.07;6.03;;;;;;;9.29;100.00;98370.81;5015958;28;20476;-78
2023/05/15 04:33:27;;;;;;;10.05;6.18;;;;;;;9.19;100.00;98346.91;5012084;28;20026;-77
2023/05/15 04:35:53;;;;;;;13.63;6.20;;;;;;;9.56;100.00;98387.84;5008482;28;20022;-73
2023/05/15 04:38:18;;;;;;;9.18;5.93;;;;;;;9.55;100.00;98372.69;5012223;28;20165;-73
2023/05/15 04:40:44;;;;;;;13.27;6.47;;;;;;;9.66;100.00;98383.69;5011134;28;20030;-76
2023/05/15 04:43:09;;;;;;;10.35;6.45;;;;;;;9.79;100.00;98399.06;5014878;28;20387;-76
2023/05/15 04:45:35;;;;;;;10.20;5.72;;;;;;;9.72;100.00;98367.69;5007737;28;20040;-72
2023/05/15 04:48:00;;;;;;;12.85;5.95;;;;;;;9.78;100.00;98367.72;5009955;28;20030;-71
2023/05/15 04:50:26;;;;;;;8.68;5.80;;;;;;;10.00;100.00;98365.59;5015320;28;20057;-73
2023/05/15 04:52:51;;;;;;;9.52;6.18;;;;;;;10.20;100.00;98362.84;5014923;28;20837;-79
2023/05/15 04:55:16;;;;;;;10.57;5.97;;;;;;;10.42;100.00;98373.44;5011728;28;20034;-77
2023/05/15 04:57:42;;;;;;;8.13;5.70;;;;;;;10.42;100.00;98349.91;5009333;28;20034;-75
2023/05/15 05:00:11;;;;;;;8.43;5.32;;;;;;;10.63;100.00;98373.16;5020466;28;20566;-81
2023/05/15 05:02:37;;;;;;;8.30;5.10;;;;;;;10.65;100.00;98371.06;5015652;28;20022;-79
2023/05/15 05:05:04;;;;;;;8.25;5.57;;;;;;;10.48;100.00;98343.69;5001026;28;20026;-78
2023/05/15 05:07:29;;;;;;;16.02;5.75;;;;;;;10.61;100.00;98353.63;5012455;28;20125;-76
2023/05/15 05:09:54;;;;;;;12.77;6.93;;;;;;;10.66;100.00;98356.50;5014786;28;20041;-79
2023/05/15 05:12:20;;;;;;;15.18;7.18;;;;;;;10.78;100.00;98363.94;5015272;28;20041;-75
2023/05/15 05:14:45;;;;;;;16.23;6.90;;;;;;;10.84;100.00;98382.84;5013878;28;20547;-73
2023/05/15 05:17:11;;;;;;;12.93;6.72;;;;;;;10.78;100.00;98356.66;5009122;28;20022;-78
2023/05/15 05:19:36;;;;;;;9.85;5.95;;;;;;;10.99;100.00;98382.56;5015101;28;20026;-81
2023/05/15 05:22:04;;;;;;;8.95;5.88;;;;;;;11.07;100.00;98376.06;4998650;28;20046;-76
2023/05/15 05:24:34;;;;;;;9.85;5.72;;;;;;;11.09;100.00;98355.84;5010199;28;20022;-76
2023/05/15 05:26:59;;;;;;;9.50;5.18;;;;;;;11.22;100.00;98354.13;5012959;28;20032;-70
2023/05/15 05:29:25;;;;;;;19.77;5.47;;;;;;;11.35;100.00;98386.53;5014517;28;20033;-70
2023/05/15 05:31:50;;;;;;;11.00;5.78;;;;;;;11.38;100.00;98372.53;5014609;28;20113;-70
2023/05/15 05:34:15;;;;;;;10.93;5.70;;;;;;;11.46;100.00;98366.84;5015962;28;20025;-83
2023/05/15 05:36:41;;;;;;;9.43;5.43;;;;;;;11.98;100.00;98375.63;5016303;28;20018;-77
2023/05/15 05:39:06;;;;;;;8.73;5.32;;;;;;;12.25;100.00;98364.50;5015156;28;20029;-76
2023/05/15 05:41:31;;;;;;;7.97;5.38;;;;;;;12.09;100.00;98324.44;5014400;28;20026;-74
2023/05/15 05:43:57;;;;;;;8.80;5.50;;;;;;;12.42;100.00;98360.16;5010576;28;20041;-70
2023/05/15 05:46:22;;;;;;;7.65;5.00;;;;;;;12.64;100.00;98348.84;5013591;28;20036;-73
2023/05/15 05:48:47;;;;;;;11.95;5.25;;;;;;;12.91;100.00;98347.41;5012404;28;20026;-73
2023/05/15 05:51:14;;;;;;;7.05;4.75;;;;;;;13.32;100.00;98359.41;5012243;28;20037;-73
2023/05/15 05:53:39;;;;;;;10.10;5.22;;;;;;;13.57;100.00;98355.69;5013359;28;20056;-71
2023/05/15 05:56:05;;;;;;;6.90;4.82;;;;;;;13.66;100.00;98348.84;5013500;28;20041;-71
2023/05/15 05:58:30;;;;;;;9.13;5.10;;;;;;;13.96;100.00;98358.78;5014289;28;20060;-70
2023/05/15 06:00:55;;;;;;;8.77;5.03;;;;;;;13.90;100.00;98360.56;5011800;28;20084;-71
2023/05/15 06:03:21;;;;;;;8.43;5.22;;;;;;;14.29;100.00;98352.75;5014344;28;20022;-73
2023/05/15 06:05:47;;;;;;;12.40;5.47;;;;;;;14.29;100.00;98338.34;5011363;28;20084;-72
2023/05/15 06:08:12;;;;;;;7.82;5.35;;;;;;;14.51;100.00;98347.50;5011012;28;20021;-73
2023/05/15 06:10:38;;;;;;;7.90;5.32;;;;;;;15.02;100.00;98364.91;5013035;28;20018;-75
2023/05/15 06:13:04;;;;;;;8.10;4.72;;;;;;;15.16;100.00;98368.16;5011826;28;20109;-74
2023/05/15 06:15:29;;;;;;;10.05;5.60;;;;;;;15.37;100.00;98360.38;5011425;28;20109;-75
2023/05/15 06:17:55;;;;;;;7.85;5.50;;;;;;;15.41;100.00;98356.09;4999559;28;20061;-74
2023/05/15 06:20:21;;;;;;;6.80;4.97;;;;;;;15.63;100.00;98334.38;5010895;28;20037;-75
2023/05/15 06:22:46;;;;;;;8.00;5.03;;;;;;;16.13;100.00;98349.91;5012453;28;20029;-74
2023/05/15 06:25:13;;;;;;;7.32;5.13;;;;;;;16.41;100.00;98351.69;5012846;28;20083;-75
2023/05/15 06:27:42;;;;;;;7.47;4.97;;;;;;;18.31;100.00;98336.09;5012604;28;20040;-74
2023/05/15 06:30:08;;;;;;;7.72;4.63;;;;;;;19.08;100.00;98354.81;5013112;28;20033;-74
2023/05/15 06:32:34;;;;;;;6.28;4.47;;;;;;;21.24;100.00;98337.75;5012653;28;20040;-74
2023/05/15 06:34:59;;;;;;;5.85;4.28;;;;;;;23.50;84.77;98355.63;5012154;28;20025;-72
2023/05/15 06:37:24;;;;;;;7.57;4.20;;;;;;;25.21;76.41;98333.75;5005989;28;20029;-71
2023/05/15 06:39:50;;;;;;;6.03;4.13;;;;;;;26.42;61.71;98345.75;5009529;28;20061;-74
2023/05/15 06:42:22;;;;;;;5.35;4.18;;;;;;;25.62;61.27;98344.69;5148247;27;20377;-57
2023/05/15 06:44:48;;;;;;;8.18;4.28;;;;;;;26.27;60.35;98351.69;5114441;28;20122;-57
2023/05/15 06:47:14;;;;;;;4.10;3.17;;;;;;;26.57;57.59;98346.50;5097147;28;20428;-57
2023/05/15 06:49:39;;;;;;;5.50;4.10;;;;;;;27.72;57.86;98350.84;5090811;28;20093;-57
2023/05/15 06:52:05;;;;;;;6.05;3.50;;;;;;;28.80;52.95;98342.44;5094407;28;20020;-57
2023/05/15 06:54:30;;;;;;;3.95;2.90;;;;;;;29.72;49.43;98340.88;5092882;28;20032;-58
2023/05/15 06:56:56;;;;;;;4.82;3.10;;;;;;;30.26;47.83;98349.25;5084041;28;20114;-57
2023/05/15 06:59:21;;;;;;;3.17;2.50;;;;;;;30.71;46.72;98345.59;5088983;28;20114;-59
2023/05/15 07:01:46;;;;;;;4.03;2.75;;;;;;;28.56;48.51;98356.94;5082841;28;20028;-57
2023/05/15 07:04:12;;;;;;;4.55;2.80;;;;;;;29.63;48.41;98351.25;5098584;28;20028;-58
2023/05/15 07:06:37;;;;;;;6.30;2.30;;;;;;;31.42;45.50;98337.94;5094005;28;20048;-58
2023/05/15 07:09:05;;;;;;;3.00;2.60;;;;;;;32.60;43.22;98334.88;5092094;28;20027;-58
2023/05/15 07:11:37;;;;;;;3.78;2.95;;;;;;;32.82;40.70;98336.19;5094070;28;20020;-58
2023/05/15 07:14:04;;;;;;;2.97;2.08;;;;;;;33.32;41.08;98343.00;5098601;28;20024;-58
2023/05/15 07:16:29;;;;;;;2.75;2.50;;;;;;;30.17;44.81;98333.72;5094198;28;20036;-58
2023/05/15 07:18:55;;;;;;;3.25;2.35;;;;;;;26.93;50.31;98337.94;5084307;28;20387;-56
2023/05/15 07:21:22;;;;;;;3.13;2.72;;;;;;;25.32;56.11;98349.00;5083315;28;20048;-57
2023/05/15 07:23:47;;;;;;;3.20;2.17;;;;;;;27.05;54.91;98340.13;5087126;28;20107;-57
2023/05/15 07:26:13;;;;;;;5.65;2.97;;;;;;;27.43;53.76;98339.53;5083138;28;20115;-57
2023/05/15 07:28:46;;;;;;;3.00;2.47;;;;;;;29.57;48.95;98338.69;5103848;28;20544;-58
2023/05/15 07:31:11;;;;;;;3.67;2.70;;;;;;;27.81;51.12;98334.19;5094152;28;20085;-57
2023/05/15 07:33:37;;;;;;;4.35;2.72;;;;;;;25.28;57.94;98353.50;5086647;28;20028;-57
2023/05/15 07:36:03;;;;;;;8.35;2.25;;;;;;;25.53;59.27;98346.59;5071956;28;20074;-58
2023/05/15 07:38:29;;;;;;;3.50;2.40;;;;;;;28.34;52.90;98335.69;5084677;28;20046;-58
2023/05/15 07:40:55;;;;;;;2.65;2.20;;;;;;;29.10;48.43;98339.66;5104622;28;20122;-57
2023/05/15 07:43:20;;;;;;;2.63;2.03;;;;;;;30.32;46.88;98331.13;5102422;28;20138;-57
2023/05/15 07:45:46;;;;;;;2.60;2.10;;;;;;;31.37;44.48;98340.94;5091374;28;20020;-57
2023/05/15 07:48:19;;;;;;;2.20;1.85;;;;;;;31.39;41.61;98330.25;5085443;28;20059;-58
2023/05/15 07:50:45;;;;;;;2.85;1.90;;;;;;;30.65;42.36;98337.78;5124955;28;20119;-57
2023/05/15 07:53:12;;;;;;;2.60;1.88;;;;;;;31.79;41.09;98340.59;5079266;28;20028;-58
2023/05/15 07:55:37;;;;;;;3.45;1.73;;;;;;;33.63;38.66;98336.53;5076157;28;20411;-57
2023/05/15 07:58:03;;;;;;;3.08;1.70;;;;;;;33.77;37.74;98336.00;5067999;28;20024;-59
2023/05/15 08:00:28;;;;;;;2.35;1.73;;;;;;;34.94;36.67;98335.78;5067958;28;21073;-59
2023/05/15 08:02:53;;;;;;;2.55;2.00;;;;;;;32.84;37.39;98340.28;5083624;28;20118;-58
2023/05/15 08:05:20;;;;;;;2.97;1.77;;;;;;;32.83;38.07;98340.63;5081537;28;20036;-58
2023/05/15 08:07:45;;;;;;;2.20;1.88;;;;;;;32.57;37.97;98335.56;5075969;28;20396;-58
2023/05/15 08:10:11;;;;;;;3.00;1.63;;;;;;;33.89;37.74;98335.84;5072771;28;20017;-58
2023/05/15 08:12:36;;;;;;;2.00;1.65;;;;;;;33.67;37.81;98330.97;5088409;28;20123;-58
2023/05/15 08:15:02;;;;;;;13.77;4.32;;;;;;;34.62;36.21;98331.25;5077091;28;20028;-58
2023/05/15 08:17:28;;;;;;;20.02;7.35;;;;;;;35.30;35.86;98326.75;5081125;28;20028;-58
2023/05/15 08:19:55;;;;;;;12.07;3.53;;;;;;;36.08;35.25;98319.72;5085633;28;20115;-59
2023/05/15 08:22:20;;;;;;;3.92;2.33;;;;;;;35.99;34.57;98323.63;5087515;28;20556;-58
2023/05/15 08:24:45;;;;;;;8.38;3.00;;;;;;;34.93;35.73;98325.75;5076851;28;20503;-58
2023/05/15 08:27:11;;;;;;;2.60;1.90;;;;;;;34.44;35.71;98319.69;5071668;28;20032;-59
2023/05/15 08:29:37;;;;;;;4.05;2.00;;;;;;;34.88;36.33;98324.06;5063245;28;20029;-58
2023/05/15 08:32:04;;;;;;;2.45;1.85;;;;;;;33.91;35.61;98324.28;5069994;28;20024;-59
2023/05/15 08:34:29;;;;;;;3.28;2.20;;;;;;;30.94;39.20;98328.41;5082918;28;20024;-59
2023/05/15 08:36:55;;;;;;;2.13;1.45;;;;;;;34.69;35.64;98313.72;5073445;28;20031;-58
2023/05/15 08:39:21;;;;;;;3.45;2.00;;;;;;;34.05;37.12;98311.31;5072064;28;20392;-58
2023/05/15 08:41:51;;;;;;;2.50;2.00;;;;;;;33.05;37.46;98317.59;5075474;28;20045;-58
2023/05/15 08:44:18;;;;;;;6.65;2.22;;;;;;;34.22;37.03;98312.06;5085517;28;20119;-58
2023/05/15 08:46:44;;;;;;;4.22;2.20;;;;;;;36.14;35.12;98306.91;5075871;28;20118;-58
2023/05/15 08:49:36;;;;;;;2.20;1.50;;;;;;;37.12;32.68;98315.84;5078070;28;20112;-58
2023/05/15 08:52:03;;;;;;;1.85;1.55;;;;;;;38.83;32.16;98305.56;5072488;28;20016;-58
2023/05/15 08:54:28;;;;;;;1.98;1.77;;;;;;;38.23;31.89;98316.41;5089108;28;20036;-59
2023/05/15 08:56:54;;;;;;;3.25;1.48;;;;;;;37.42;32.24;98306.38;5078863;28;20398;-59
2023/05/15 08:59:20;;;;;;;2.75;1.58;;;;;;;40.01;30.30;98308.13;5067722;28;20037;-59
2023/05/15 09:01:45;;;;;;;2.20;1.70;;;;;;;37.39;31.71;98304.31;5072391;28;20016;-59
2023/05/15 09:04:10;;;;;;;4.05;1.98;;;;;;;35.92;33.32;98300.19;5076340;28;20543;-59
2023/05/15 09:06:37;;;;;;;2.90;1.50;;;;;;;36.88;31.48;98296.72;5076509;28;20016;-59
2023/05/15 09:09:04;;;;;;;2.30;1.58;;;;;;;37.78;31.61;98298.06;5070042;28;20036;-59
2023/05/15 09:11:31;;;;;;;2.55;1.80;;;;;;;37.06;31.83;98298.50;5082391;28;20450;-59
2023/05/15 09:14:00;;;;;;;3.03;1.60;;;;;;;37.01;32.78;98293.19;5085662;28;20035;-59
2023/05/15 09:16:26;;;;;;;2.10;1.65;;;;;;;38.31;30.26;98286.16;5085192;28;20123;-60
2023/05/15 09:18:53;;;;;;;1.98;1.30;;;;;;;34.53;33.79;98282.09;5074242;28;20030;-60
2023/05/15 09:21:24;;;;;;;2.03;1.67;;;;;;;31.96;37.23;98280.75;5076758;28;20031;-60
2023/05/15 09:23:50;;;;;;;2.90;1.80;;;;;;;32.94;36.91;98286.47;5074748;28;20051;-58
2023/05/15 09:26:15;;;;;;;1.77;1.55;;;;;;;34.62;34.34;98277.88;5081481;28;20463;-58
2023/05/15 09:28:41;;;;;;;2.63;1.88;;;;;;;35.77;33.01;98276.72;5072976;28;20468;-58
2023/05/15 09:31:07;;;;;;;2.88;1.90;;;;;;;32.89;36.67;98275.53;5071659;28;20377;-58
2023/05/15 09:33:41;;;;;;;3.55;1.83;;;;;;;30.54;39.22;98276.00;5079148;28;20476;-57
2023/05/15 09:36:07;;;;;;;3.17;1.73;;;;;;;28.70;42.16;98283.53;5073974;28;20388;-57
2023/05/15 09:39:00;;;;;;;3.90;2.03;;;;;;;31.06;40.39;98275.31;5077603;28;20028;-57
2023/05/15 09:41:26;;;;;;;3.30;1.92;;;;;;;34.34;36.68;98269.75;5081537;28;20063;-58
2023/05/15 09:46:23;;;;;;;3.75;2.13;;;;;;;29.54;41.00;98269.69;5053649;22;20041;-69
2023/05/15 09:48:52;;;;;;;2.67;2.03;;;;;;;31.56;39.06;98268.44;5030866;28;20064;-69
2023/05/15 09:51:18;;;;;;;2.85;2.20;;;;;;;34.92;35.42;98257.44;5043886;28;20095;-70
2023/05/15 09:53:51;;;;;;;3.05;1.92;;;;;;;37.62;32.15;98254.06;5041403;28;20076;-70
2023/05/15 09:56:17;;;;;;;4.35;1.80;;;;;;;34.61;36.27;98256.59;5017212;28;20108;-68
2023/05/15 09:58:56;;;;;;;2.13;1.77;;;;;;;33.84;37.13;98251.97;5026097;28;20092;-69
2023/05/15 10:01:22;;;;;;;3.25;1.90;;;;;;;35.80;34.53;98238.56;5024693;28;20026;-70
2023/05/15 10:04:02;;;;;;;3.15;2.08;;;;;;;34.50;35.15;98249.13;5030201;28;20438;-71
2023/05/15 10:06:34;;;;;;;2.20;1.33;;;;;;;35.19;35.37;98243.38;5028933;28;20059;-70
2023/05/15 10:09:01;;;;;;;2.63;2.00;;;;;;;35.73;32.82;98244.91;5041515;28;20025;-71
2023/05/15 10:11:28;;;;;;;1.88;1.50;;;;;;;34.65;33.89;98251.84;5030849;28;20067;-74
2023/05/15 10:13:54;;;;;;;4.45;1.65;;;;;;;34.82;33.63;98241.22;5042922;28;20528;-70
2023/05/15 10:16:23;;;;;;;3.15;1.63;;;;;;;36.49;31.40;98252.09;5022516;28;20092;-70
2023/05/15 10:18:51;;;;;;;2.00;1.80;;;;;;;36.60;30.75;98247.38;5040755;28;20493;-69
2023/05/15 10:21:19;;;;;;;7.20;1.90;;;;;;;38.21;31.27;98234.06;5027118;28;20036;-69
2023/05/15 10:23:45;;;;;;;1.73;1.45;;;;;;;39.32;29.09;98244.47;5025068;28;20025;-69
2023/05/15 10:26:20;;;;;;;2.83;1.70;;;;;;;35.78;32.92;98236.13;5031971;28;20044;-71
2023/05/15 10:28:47;;;;;;;2.85;1.50;;;;;;;34.95;33.72;98222.94;5031564;28;20053;-70
2023/05/15 10:31:12;;;;;;;2.67;1.77;;;;;;;36.47;32.78;98220.69;5034937;28;20595;-75
2023/05/15 10:33:39;;;;;;;4.28;1.88;;;;;;;37.42;31.32;98227.38;5025689;28;20079;-74
2023/05/15 10:36:06;;;;;;;1.55;1.40;;;;;;;36.95;31.46;98218.63;5025905;28;20036;-69
2023/05/15 10:38:31;;;;;;;4.20;1.40;;;;;;;39.13;30.14;98211.78;5039973;28;20397;-70
2023/05/15 10:40:59;;;;;;;2.70;1.20;;;;;;;39.14;29.15;98202.06;5035978;28;20022;-70
2023/05/15 10:43:25;;;;;;;1.75;1.40;;;;;;;39.69;28.86;98198.59;5027294;28;20085;-70
2023/05/15 10:45:51;;;;;;;1.63;1.30;;;;;;;40.27;28.30;98197.06;5036068;28;20501;-68
2023/05/15 10:48:18;;;;;;;1.30;1.20;;;;;;;39.48;28.86;98193.88;5028275;28;20613;-69
2023/05/15 10:50:44;;;;;;;2.78;1.42;;;;;;;38.92;28.56;98190.84;5028142;28;20025;-69
2023/05/15 10:53:09;;;;;;;3.25;1.45;;;;;;;38.43;28.48;98186.84;5021057;28;20487;-69
2023/05/15 10:55:35;;;;;;;1.90;1.20;;;;;;;39.61;28.06;98177.22;5027123;28;20025;-69
2023/05/15 10:58:01;;;;;;;1.73;1.20;;;;;;;39.05;28.27;98179.09;5029585;28;20017;-70
2023/05/15 11:00:32;;;;;;;1.60;1.50;;;;;;;38.76;28.72;98181.97;5030418;28;20033;-69
2023/05/15 11:02:58;;;;;;;3.45;1.30;;;;;;;37.64;28.26;98163.34;5028383;28;20421;-70
2023/05/15 11:05:24;;;;;;;1.92;1.40;;;;;;;38.59;28.42;98177.94;5034010;28;20062;-70
2023/05/15 11:08:14;;;;;;;1.23;1.13;;;;;;;38.28;27.38;98171.91;5038530;28;20033;-70
2023/05/15 11:10:40;;;;;;;1.50;1.30;;;;;;;38.90;28.67;98172.66;5031397;28;20025;-71
2023/05/15 11:13:05;;;;;;;3.83;1.35;;;;;;;38.29;28.40;98167.06;5018228;28;20026;-70
2023/05/15 11:15:45;;;;;;;4.88;1.58;;;;;;;39.83;28.40;98173.06;5016579;28;20043;-68
2023/05/15 11:18:10;;;;;;;5.00;1.60;;;;;;;40.85;27.24;98176.66;5038101;28;20026;-71
2023/05/15 11:20:50;;;;;;;2.15;1.40;;;;;;;40.73;26.49;98175.97;5026565;28;20056;-70
2023/05/15 11:23:20;;;;;;;2.42;1.30;;;;;;;38.58;27.96;98168.66;5029915;28;20704;-69
2023/05/15 11:25:52;;;;;;;2.30;1.33;;;;;;;36.53;29.35;98188.94;5041058;28;20021;-69
2023/05/15 11:28:21;;;;;;;3.22;1.20;;;;;;;32.63;32.38;98188.50;5032559;28;20034;-69
2023/05/15 11:30:50;;;;;;;2.65;1.40;;;;;;;29.88;33.87;98184.88;5020887;28;20075;-76
2023/05/15 11:33:16;;;;;;;4.88;1.40;;;;;;;27.93;35.81;98195.31;5039389;28;20060;-71